Time,TemperatureF,DewpointF,PressureIn,WindDirection,WindDirectionDegrees,WindSpeedMPH,WindSpeedGustMPH,Humidity,HourlyPrecipIn,Conditions,Clouds,dailyrainin,SoftwareType,DateUTC
2013-10-27 00:01:00,40.2,35.6,30.07,WSW,239,0.0,0.0,84,0.00,,OVC,0.00,VWS V14.00,2013-10-27 04:01:00,
2013-10-27 03:32:00,38.7,36.7,29.80,South,177,4.7,15.3,92,0.21,,BKN,0.03,VWS V14.00,2013-10-27 07:32:00,
2013-10-27 03:33:00,38.7,36.7,29.80,South,177,4.7,15.3,92,0.21,,BKN,0.03,VWS V14.00,2013-10-27 07:33:00,
2013-10-27 03:38:00,38.7,36.7,29.80,South,177,4.7,15.3,92,0.21,,BKN,0.03,VWS V14.00,2013-10-27 07:38:00,
2013-10-27 07:06:00,40.9,39.3,29.86,WSW,252,2.4,15.3,94,0.22,,OVC,0.04,VWS V14.00,2013-10-27 11:06:00,
2013-10-27 07:09:00,40.9,39.3,29.86,WSW,252,2.4,15.3,94,0.22,,OVC,0.04,VWS V14.00,2013-10-27 11:09:00,
2013-10-27 07:14:00,40.9,39.3,29.86,WSW,252,2.4,15.3,94,0.22,,OVC,0.04,VWS V14.00,2013-10-27 11:14:00,
2013-10-27 08:09:00,39.2,36.6,29.90,West,277,3.9,15.3,90,0.23,,OVC,0.05,VWS V14.00,2013-10-27 12:09:00,
2013-10-27 08:14:00,39.2,36.6,29.90,West,277,3.9,15.3,90,0.23,,OVC,0.05,VWS V14.00,2013-10-27 12:14:00,
2013-10-27 09:52:00,39.6,35.3,29.95,West,271,7.4,15.3,84,0.23,,OVC,0.05,VWS V14.00,2013-10-27 13:52:00,
2013-10-27 09:54:00,39.6,35.3,29.95,West,271,7.4,15.3,84,0.23,,OVC,0.05,VWS V14.00,2013-10-27 13:54:00,
2013-10-27 09:59:00,39.6,35.3,29.95,West,271,7.4,15.3,84,0.23,,OVC,0.05,VWS V14.00,2013-10-27 13:59:00,
2013-10-27 10:35:00,40.9,35.8,29.96,West,273,7.5,9.6,82,0.00,,OVC,0.05,VWS V14.00,2013-10-27 14:35:00,
2013-10-27 10:40:00,41.1,35.6,29.96,SW,232,6.3,11.8,80,0.00,,OVC,0.05,VWS V14.00,2013-10-27 14:40:00,
2013-10-27 10:45:00,41.1,35.7,29.97,NW,304,2.7,11.8,81,0.00,,OVC,0.05,VWS V14.00,2013-10-27 14:45:00,
2013-10-27 10:50:00,41.0,35.6,29.97,West,264,8.3,11.8,81,0.00,,OVC,0.05,VWS V14.00,2013-10-27 14:50:00,
2013-10-27 10:55:00,41.1,35.4,29.97,West,262,3.3,11.8,80,0.00,,OVC,0.05,VWS V14.00,2013-10-27 14:55:00,
2013-10-27 11:00:00,40.8,34.5,29.97,NW,308,7.3,12.0,78,0.00,,OVC,0.05,VWS V14.00,2013-10-27 15:00:00,
2013-10-27 11:05:00,41.0,35.3,29.97,NW,305,3.0,12.0,80,0.00,,OVC,0.05,VWS V14.00,2013-10-27 15:05:00,
2013-10-27 11:10:00,41.1,34.9,29.97,West,263,4.8,12.0,78,0.00,,OVC,0.05,VWS V14.00,2013-10-27 15:10:00,
2013-10-27 11:15:00,41.1,35.0,29.97,West,269,9.2,12.0,79,0.00,,OVC,0.05,VWS V14.00,2013-10-27 15:15:00,
2013-10-27 11:20:00,41.2,34.5,29.97,WNW,301,7.2,12.0,77,0.00,,OVC,0.05,VWS V14.00,2013-10-27 15:20:00,
2013-10-27 11:25:00,41.3,34.9,29.97,SW,233,2.8,12.0,78,0.00,,OVC,0.05,VWS V14.00,2013-10-27 15:25:00,
2013-10-27 11:30:00,41.4,34.7,29.97,NW,305,4.4,8.0,77,0.00,,OVC,0.05,VWS V14.00,2013-10-27 15:30:00,
2013-10-27 11:35:00,41.4,34.9,29.97,WNW,294,5.2,9.2,78,0.00,,OVC,0.05,VWS V14.00,2013-10-27 15:35:00,
2013-10-27 11:40:00,41.6,35.2,29.97,WNW,292,4.8,9.2,78,0.00,,OVC,0.05,VWS V14.00,2013-10-27 15:40:00,
2013-10-27 11:43:00,41.6,35.0,29.98,West,270,3.3,9.2,77,0.00,,OVC,0.05,VWS V14.00,2013-10-27 15:43:00,
2013-10-27 11:45:00,41.6,35.0,29.98,West,270,3.3,9.2,77,0.00,,OVC,0.05,VWS V14.00,2013-10-27 15:45:00,
2013-10-27 11:50:00,41.6,35.0,29.98,West,270,3.3,9.2,77,0.00,,OVC,0.05,VWS V14.00,2013-10-27 15:50:00,
2013-10-27 12:00:00,41.0,35.7,29.97,West,281,9.3,11.8,81,0.00,,SCT,0.05,VWS V14.00,2013-10-27 16:00:00,
2013-10-27 12:30:00,41.3,34.8,29.98,WNW,288,2.8,12.0,78,0.00,,SCT,0.05,VWS V14.00,2013-10-27 16:30:00,
2013-10-27 12:40:00,42.2,34.8,29.98,WNW,295,4.4,9.2,75,0.00,,OVC,0.05,VWS V14.00,2013-10-27 16:40:00,
2013-10-27 12:42:00,42.2,34.8,29.98,WNW,295,4.4,9.2,75,0.00,,OVC,0.05,VWS V14.00,2013-10-27 16:42:00,
2013-10-27 12:45:00,42.2,34.8,29.98,WNW,295,4.4,9.2,75,0.00,,OVC,0.05,VWS V14.00,2013-10-27 16:45:00,
2013-10-27 12:50:00,42.2,34.8,29.98,WNW,295,4.4,9.2,75,0.00,,OVC,0.05,VWS V14.00,2013-10-27 16:50:00,
2013-10-27 13:44:00,44.6,34.3,29.98,SW,219,12.5,12.5,67,0.00,,OVC,0.05,VWS V14.00,2013-10-27 17:44:00,
2013-10-27 13:45:00,44.6,34.3,29.98,SW,219,12.5,12.5,67,0.00,,OVC,0.05,VWS V14.00,2013-10-27 17:45:00,
2013-10-27 13:50:00,44.6,34.3,29.98,SW,219,12.5,12.5,67,0.00,,OVC,0.05,VWS V14.00,2013-10-27 17:50:00,
2013-10-27 15:43:00,44.5,31.7,29.99,West,280,6.5,10.4,61,0.00,,OVC,0.05,VWS V14.00,2013-10-27 19:43:00,
2013-10-27 15:48:00,44.3,31.8,30.00,West,264,6.8,10.4,61,0.00,,OVC,0.05,VWS V14.00,2013-10-27 19:48:00,
2013-10-27 15:53:00,43.9,31.3,29.99,SW,214,0.8,10.4,61,0.00,,OVC,0.05,VWS V14.00,2013-10-27 19:53:00,
2013-10-27 15:58:00,43.9,31.6,29.99,WSW,238,2.9,3.9,62,0.00,,OVC,0.05,VWS V14.00,2013-10-27 19:58:00,
2013-10-27 16:03:00,43.7,31.1,30.00,WSW,255,3.1,7.6,61,0.00,,OVC,0.05,VWS V14.00,2013-10-27 20:03:00,
2013-10-27 16:08:00,44.0,32.0,30.00,West,277,1.0,7.6,62,0.00,,OVC,0.05,VWS V14.00,2013-10-27 20:08:00,
2013-10-27 16:13:00,44.5,32.7,30.00,West,280,5.2,7.6,63,0.00,,OVC,0.05,VWS V14.00,2013-10-27 20:13:00,
2013-10-27 16:18:00,45.3,33.2,30.00,WSW,242,2.2,7.6,62,0.00,,OVC,0.05,VWS V14.00,2013-10-27 20:18:00,
2013-10-27 16:23:00,45.2,31.6,30.00,WSW,257,7.8,10.7,59,0.00,,OVC,0.05,VWS V14.00,2013-10-27 20:23:00,
2013-10-27 16:28:00,45.1,32.2,30.00,WSW,256,4.6,4.7,60,0.00,,OVC,0.05,VWS V14.00,2013-10-27 20:28:00,
2013-10-27 16:33:00,44.9,32.1,30.00,West,263,4.5,7.4,61,0.00,,OVC,0.05,VWS V14.00,2013-10-27 20:33:00,
2013-10-27 16:38:00,44.9,32.6,30.00,SW,224,7.5,7.8,62,0.00,,OVC,0.05,VWS V14.00,2013-10-27 20:38:00,
2013-10-27 16:43:00,44.7,32.5,30.00,WSW,240,3.8,8.7,62,0.00,,OVC,0.05,VWS V14.00,2013-10-27 20:43:00,
2013-10-27 16:48:00,44.7,32.6,30.00,West,264,3.9,8.7,62,0.00,,OVC,0.05,VWS V14.00,2013-10-27 20:48:00,
2013-10-27 16:53:00,44.4,32.8,30.00,WSW,242,1.7,8.7,64,0.00,,OVC,0.05,VWS V14.00,2013-10-27 20:53:00,
2013-10-27 16:58:00,44.4,33.1,30.00,WSW,246,6.0,6.0,64,0.00,,OVC,0.05,VWS V14.00,2013-10-27 20:58:00,
2013-10-27 17:00:00,43.9,31.5,30.00,West,259,3.7,10.4,61,0.00,,SCT,0.05,VWS V14.00,2013-10-27 21:00:00,
2013-10-27 17:03:00,44.4,33.6,30.00,West,266,0.0,9.6,66,0.00,,OVC,0.05,VWS V14.00,2013-10-27 21:03:00,
2013-10-27 17:08:00,44.3,33.8,30.00,WSW,257,4.4,9.6,66,0.00,,OVC,0.05,VWS V14.00,2013-10-27 21:08:00,
2013-10-27 17:13:00,44.4,33.7,30.00,West,267,3.9,9.6,66,0.00,,OVC,0.05,VWS V14.00,2013-10-27 21:13:00,
2013-10-27 17:18:00,44.1,33.1,30.01,SW,214,4.9,9.6,65,0.00,,OVC,0.05,VWS V14.00,2013-10-27 21:18:00,
2013-10-27 17:23:00,44.0,33.0,30.01,SW,233,4.5,9.6,65,0.00,,OVC,0.05,VWS V14.00,2013-10-27 21:23:00,
2013-10-27 17:28:00,44.0,33.0,30.01,WSW,250,1.7,3.7,65,0.00,,OVC,0.05,VWS V14.00,2013-10-27 21:28:00,
2013-10-27 17:30:00,45.1,32.1,30.00,West,267,2.5,10.7,60,0.00,,SCT,0.05,VWS V14.00,2013-10-27 21:30:00,
2013-10-27 17:33:00,43.9,32.8,30.01,SW,231,2.4,7.7,65,0.00,,OVC,0.05,VWS V14.00,2013-10-27 21:33:00,
2013-10-27 17:38:00,43.7,32.6,30.01,WSW,238,2.6,7.7,65,0.00,,OVC,0.05,VWS V14.00,2013-10-27 21:38:00,
2013-10-27 17:43:00,43.6,32.7,30.01,SW,226,1.7,7.7,65,0.00,,OVC,0.05,VWS V14.00,2013-10-27 21:43:00,
2013-10-27 17:48:00,43.6,32.9,30.01,WSW,238,0.0,7.7,66,0.00,,OVC,0.05,VWS V14.00,2013-10-27 21:48:00,
2013-10-27 17:53:00,43.4,32.8,30.01,SW,222,2.8,7.7,66,0.00,,OVC,0.05,VWS V14.00,2013-10-27 21:53:00,
2013-10-27 17:58:00,43.3,32.8,30.01,SW,235,2.3,3.9,66,0.00,,OVC,0.05,VWS V14.00,2013-10-27 21:58:00,
2013-10-27 18:00:00,44.5,33.1,30.00,WSW,250,0.0,8.7,64,0.00,,SCT,0.05,VWS V14.00,2013-10-27 22:00:00,
2013-10-27 18:03:00,43.4,33.1,30.02,SW,219,0.0,3.9,67,0.00,,OVC,0.05,VWS V14.00,2013-10-27 22:03:00,
2013-10-27 18:08:00,42.9,32.7,30.02,SW,233,2.2,3.9,67,0.00,,OVC,0.05,VWS V14.00,2013-10-27 22:08:00,
2013-10-27 18:13:00,42.9,32.8,30.02,SW,236,2.7,5.0,67,0.00,,OVC,0.05,VWS V14.00,2013-10-27 22:13:00,
2013-10-27 18:18:00,42.6,32.7,30.02,SW,229,1.2,5.5,68,0.00,,OVC,0.05,VWS V14.00,2013-10-27 22:18:00,
2013-10-27 18:23:00,42.4,32.6,30.02,SSW,202,0.0,5.5,68,0.00,,OVC,0.05,VWS V14.00,2013-10-27 22:23:00,
2013-10-27 18:28:00,42.3,32.7,30.02,SW,226,0.0,2.5,68,0.00,,OVC,0.05,VWS V14.00,2013-10-27 22:28:00,
2013-10-27 18:30:00,44.0,32.8,30.01,SW,225,3.0,9.6,65,0.00,,SCT,0.05,VWS V14.00,2013-10-27 22:30:00,
2013-10-27 18:33:00,42.0,32.6,30.02,SW,224,2.7,3.0,69,0.00,,OVC,0.05,VWS V14.00,2013-10-27 22:33:00,
2013-10-27 18:38:00,41.8,32.5,30.03,SW,235,2.8,6.2,69,0.00,,OVC,0.05,VWS V14.00,2013-10-27 22:38:00,
2013-10-27 18:43:00,41.6,32.4,30.03,SW,224,4.0,6.2,70,0.00,,OVC,0.05,VWS V14.00,2013-10-27 22:43:00,
2013-10-27 18:48:00,41.5,32.3,30.03,SSW,207,0.0,6.2,70,0.00,,OVC,0.05,VWS V14.00,2013-10-27 22:48:00,
2013-10-27 18:53:00,41.3,32.3,30.03,SSW,207,0.0,6.2,70,0.00,,OVC,0.05,VWS V14.00,2013-10-27 22:53:00,
2013-10-27 18:58:00,41.3,32.5,30.03,SSW,207,0.0,0.0,71,0.00,,OVC,0.05,VWS V14.00,2013-10-27 22:58:00,
2013-10-27 19:00:00,43.3,32.9,30.01,SW,218,2.9,7.7,66,0.00,,SCT,0.05,VWS V14.00,2013-10-27 23:00:00,
2013-10-27 19:03:00,41.0,32.3,30.03,SSW,207,0.0,0.0,71,0.00,,OVC,0.05,VWS V14.00,2013-10-27 23:03:00,
2013-10-27 19:08:00,40.9,32.4,30.03,South,187,1.3,3.5,72,0.00,,OVC,0.05,VWS V14.00,2013-10-27 23:08:00,
2013-10-27 19:13:00,40.6,32.3,30.03,SW,215,1.6,3.7,72,0.00,,OVC,0.05,VWS V14.00,2013-10-27 23:13:00,
2013-10-27 19:18:00,40.4,32.3,30.04,SSW,195,1.7,4.6,73,0.00,,OVC,0.05,VWS V14.00,2013-10-27 23:18:00,
2013-10-27 19:24:00,40.3,32.3,30.04,SW,218,2.1,4.6,73,0.00,,OVC,0.05,VWS V14.00,2013-10-27 23:24:00,
2013-10-27 19:29:00,40.2,32.2,30.04,SSW,211,3.3,3.8,73,0.00,,OVC,0.05,VWS V14.00,2013-10-27 23:29:00,
2013-10-27 19:30:00,42.3,32.6,30.02,SW,221,1.6,5.5,68,0.00,,SCT,0.05,VWS V14.00,2013-10-27 23:30:00,
2013-10-27 19:34:00,40.3,32.3,30.04,South,186,0.0,3.8,73,0.00,,OVC,0.05,VWS V14.00,2013-10-27 23:34:00,
2013-10-27 19:39:00,40.2,32.3,30.04,South,186,0.0,3.8,73,0.00,,OVC,0.05,VWS V14.00,2013-10-27 23:39:00,
2013-10-27 19:44:00,40.0,32.2,30.04,South,186,0.0,3.8,74,0.00,,OVC,0.05,VWS V14.00,2013-10-27 23:44:00,
2013-10-27 19:49:00,39.7,32.2,30.04,South,186,0.0,3.8,74,0.00,,OVC,0.05,VWS V14.00,2013-10-27 23:49:00,
2013-10-27 19:54:00,39.5,32.2,30.04,South,186,0.0,3.8,75,0.00,,OVC,0.05,VWS V14.00,2013-10-27 23:54:00,
2013-10-27 19:59:00,39.5,32.3,30.04,South,186,0.0,0.0,75,0.00,,OVC,0.05,VWS V14.00,2013-10-27 23:59:00,
2013-10-27 20:00:00,41.3,32.5,30.03,SSW,207,0.0,6.2,71,0.00,,SCT,0.05,VWS V14.00,2013-10-28 00:00:00,
2013-10-27 20:04:00,39.2,32.2,30.05,South,186,0.0,0.0,76,0.00,,OVC,0.05,VWS V14.00,2013-10-28 00:04:00,
2013-10-27 20:09:00,39.4,32.3,30.05,South,186,0.0,0.0,76,0.00,,OVC,0.05,VWS V14.00,2013-10-28 00:09:00,
2013-10-27 20:14:00,39.4,32.3,30.05,South,186,0.0,0.0,75,0.00,,OVC,0.05,VWS V14.00,2013-10-28 00:14:00,
2013-10-27 20:19:00,39.7,32.5,30.05,South,186,0.0,0.0,75,0.00,,OVC,0.05,VWS V14.00,2013-10-28 00:19:00,
2013-10-27 20:24:00,39.9,32.6,30.05,South,186,0.0,0.0,75,0.00,,OVC,0.05,VWS V14.00,2013-10-28 00:24:00,
2013-10-27 20:29:00,40.1,32.7,30.05,South,186,0.0,0.0,75,0.00,,OVC,0.05,VWS V14.00,2013-10-28 00:29:00,
2013-10-27 20:30:00,40.3,32.3,30.04,SSW,202,0.0,4.6,73,0.00,,SCT,0.05,VWS V14.00,2013-10-28 00:30:00,
2013-10-27 20:34:00,40.2,32.8,30.05,South,186,0.0,0.0,74,0.00,,OVC,0.05,VWS V14.00,2013-10-28 00:34:00,
2013-10-27 20:39:00,40.1,32.6,30.05,South,186,0.0,0.0,74,0.00,,OVC,0.05,VWS V14.00,2013-10-28 00:39:00,
2013-10-27 20:44:00,40.3,32.8,30.05,South,186,0.0,0.0,74,0.00,,OVC,0.05,VWS V14.00,2013-10-28 00:44:00,
2013-10-27 20:49:00,40.4,32.8,30.05,SSW,194,2.0,3.4,74,0.00,,OVC,0.05,VWS V14.00,2013-10-28 00:49:00,
2013-10-27 20:54:00,40.4,32.8,30.05,SW,221,0.0,4.2,74,0.00,,OVC,0.05,VWS V14.00,2013-10-28 00:54:00,
2013-10-27 20:59:00,40.4,32.8,30.05,SW,225,3.3,3.7,74,0.00,,OVC,0.05,VWS V14.00,2013-10-28 00:59:00,
2013-10-27 21:00:00,39.3,32.1,30.04,South,186,0.0,3.8,75,0.00,,SCT,0.05,VWS V14.00,2013-10-28 01:00:00,
2013-10-27 21:04:00,40.6,33.0,30.05,SW,231,1.1,3.9,74,0.00,,OVC,0.05,VWS V14.00,2013-10-28 01:04:00,
2013-10-27 21:09:00,40.7,33.1,30.05,WSW,239,0.0,4.0,74,0.00,,OVC,0.05,VWS V14.00,2013-10-28 01:09:00,
2013-10-27 21:14:00,40.7,33.2,30.05,WSW,239,0.0,4.0,74,0.00,,OVC,0.05,VWS V14.00,2013-10-28 01:14:00,
2013-10-27 21:19:00,40.8,33.3,30.06,WSW,239,0.0,4.0,74,0.00,,OVC,0.05,VWS V14.00,2013-10-28 01:19:00,
2013-10-27 21:24:00,40.8,33.4,30.06,WSW,239,0.0,4.0,75,0.00,,OVC,0.05,VWS V14.00,2013-10-28 01:24:00,
2013-10-27 21:29:00,40.8,33.3,30.06,WSW,239,0.0,0.0,74,0.00,,OVC,0.05,VWS V14.00,2013-10-28 01:29:00,
2013-10-27 21:30:00,40.0,32.7,30.05,South,186,0.0,0.0,75,0.00,,SCT,0.05,VWS V14.00,2013-10-28 01:30:00,
2013-10-27 21:34:00,40.7,33.2,30.05,WSW,239,0.0,0.0,74,0.00,,OVC,0.05,VWS V14.00,2013-10-28 01:34:00,
2013-10-27 21:39:00,40.6,33.2,30.05,WSW,239,0.0,0.0,75,0.00,,OVC,0.05,VWS V14.00,2013-10-28 01:39:00,
2013-10-27 21:44:00,40.6,33.2,30.05,WSW,239,0.0,0.0,75,0.00,,OVC,0.05,VWS V14.00,2013-10-28 01:44:00,
2013-10-27 21:49:00,40.6,33.5,30.06,WSW,239,0.0,0.0,76,0.00,,OVC,0.05,VWS V14.00,2013-10-28 01:49:00,
2013-10-27 21:54:00,40.4,33.3,30.06,WSW,239,0.0,0.0,76,0.00,,OVC,0.05,VWS V14.00,2013-10-28 01:54:00,
2013-10-27 21:59:00,40.4,33.4,30.06,WSW,239,0.0,0.0,76,0.00,,OVC,0.05,VWS V14.00,2013-10-28 01:59:00,
2013-10-27 22:00:00,40.6,33.0,30.05,SW,221,0.0,4.2,74,0.00,,SCT,0.05,VWS V14.00,2013-10-28 02:00:00,
2013-10-27 22:04:00,40.2,33.4,30.06,WSW,239,0.0,0.0,76,0.00,,OVC,0.05,VWS V14.00,2013-10-28 02:04:00,
2013-10-27 22:09:00,40.1,33.6,30.06,WSW,239,0.0,0.0,77,0.00,,OVC,0.05,VWS V14.00,2013-10-28 02:09:00,
2013-10-27 22:14:00,39.9,33.5,30.06,WSW,239,0.0,0.0,78,0.00,,OVC,0.05,VWS V14.00,2013-10-28 02:14:00,
2013-10-27 22:19:00,39.7,33.5,30.06,WSW,239,0.0,0.0,78,0.00,,OVC,0.05,VWS V14.00,2013-10-28 02:19:00,
2013-10-27 22:24:00,39.7,33.8,30.06,WSW,239,0.0,0.0,79,0.00,,OVC,0.05,VWS V14.00,2013-10-28 02:24:00,
2013-10-27 22:29:00,39.5,33.6,30.07,WSW,239,0.0,0.0,79,0.00,,OVC,0.05,VWS V14.00,2013-10-28 02:29:00,
2013-10-27 22:30:00,40.7,33.2,30.06,WSW,239,0.0,4.0,74,0.00,,SCT,0.05,VWS V14.00,2013-10-28 02:30:00,
2013-10-27 22:34:00,39.2,33.7,30.07,WSW,239,0.0,0.0,80,0.00,,OVC,0.05,VWS V14.00,2013-10-28 02:34:00,
2013-10-27 22:39:00,39.2,33.9,30.07,WSW,239,0.0,0.0,81,0.00,,OVC,0.05,VWS V14.00,2013-10-28 02:39:00,
2013-10-27 22:44:00,39.2,33.9,30.07,WSW,239,0.0,0.0,81,0.00,,OVC,0.05,VWS V14.00,2013-10-28 02:44:00,
2013-10-27 22:49:00,39.1,33.9,30.07,WSW,239,0.0,0.0,81,0.00,,OVC,0.05,VWS V14.00,2013-10-28 02:49:00,
2013-10-27 22:54:00,39.1,34.0,30.07,WSW,239,0.0,0.0,82,0.00,,OVC,0.05,VWS V14.00,2013-10-28 02:54:00,
2013-10-27 22:59:00,39.2,34.2,30.07,WSW,239,0.0,0.0,82,0.00,,OVC,0.05,VWS V14.00,2013-10-28 02:59:00,
2013-10-27 23:00:00,40.5,33.5,30.06,WSW,239,0.0,0.0,76,0.00,,SCT,0.05,VWS V14.00,2013-10-28 03:00:00,
2013-10-27 23:04:00,39.2,34.3,30.07,WSW,239,0.0,0.0,82,0.00,,OVC,0.05,VWS V14.00,2013-10-28 03:04:00,
2013-10-27 23:09:00,39.2,34.4,30.07,WSW,239,0.0,0.0,83,0.00,,OVC,0.05,VWS V14.00,2013-10-28 03:09:00,
2013-10-27 23:14:00,39.3,34.5,30.07,WSW,239,0.0,0.0,83,0.00,,OVC,0.05,VWS V14.00,2013-10-28 03:14:00,
2013-10-27 23:19:00,39.4,34.7,30.07,WSW,239,0.0,0.0,83,0.00,,OVC,0.05,VWS V14.00,2013-10-28 03:19:00,
2013-10-27 23:24:00,39.4,34.7,30.06,WSW,239,0.0,0.0,83,0.00,,OVC,0.05,VWS V14.00,2013-10-28 03:24:00,
2013-10-27 23:29:00,39.5,34.9,30.06,WSW,239,0.0,0.0,83,0.00,,OVC,0.05,VWS V14.00,2013-10-28 03:29:00,
2013-10-27 23:30:00,39.5,33.6,30.07,WSW,239,0.0,0.0,79,0.00,,SCT,0.05,VWS V14.00,2013-10-28 03:30:00,
2013-10-27 23:34:00,39.7,35.1,30.06,WSW,239,0.0,0.0,84,0.00,,OVC,0.05,VWS V14.00,2013-10-28 03:34:00,
2013-10-27 23:39:00,40.0,35.4,30.06,WSW,239,0.0,0.0,83,0.00,,OVC,0.05,VWS V14.00,2013-10-28 03:39:00,
2013-10-27 23:44:00,40.0,35.4,30.06,WSW,239,0.0,0.0,83,0.00,,OVC,0.05,VWS V14.00,2013-10-28 03:44:00,
2013-10-27 23:49:00,40.2,35.5,30.06,WSW,239,0.0,0.0,83,0.00,,OVC,0.05,VWS V14.00,2013-10-28 03:49:00,
2013-10-27 23:54:00,40.3,35.7,30.07,WSW,239,0.0,0.0,83,0.00,,OVC,0.05,VWS V14.00,2013-10-28 03:54:00,